sensor_id;sensor_type;location;lat;lon;timestamp;pressure;altitude;pressure_sealevel;temperature;humidity
61205;BME280;47068;55.780;37.520;2023-03-25T00:00:15;98732.16;;;7.57;72.50
61205;BME280;47068;55.780;37.520;2023-03-25T00:02:49;98737.13;;;7.60;71.87
61205;BME280;47068;55.780;37.520;2023-03-25T00:05:18;98742.91;;;7.63;71.89
61205;BME280;47068;55.780;37.520;2023-03-25T00:07:45;98728.81;;;7.71;72.06
61205;BME280;47068;55.780;37.520;2023-03-25T00:10:13;98719.75;;;7.65;71.98
61205;BME280;47068;55.780;37.520;2023-03-25T00:12:38;98719.06;;;7.71;72.14
61205;BME280;47068;55.780;37.520;2023-03-25T00:15:06;98708.66;;;7.62;71.43
61205;BME280;47068;55.780;37.520;2023-03-25T00:17:32;98692.00;;;7.53;71.83
61205;BME280;47068;55.780;37.520;2023-03-25T00:19:58;98713.94;;;7.62;71.48
61205;BME280;47068;55.780;37.520;2023-03-25T00:22:25;98706.19;;;7.60;71.88
61205;BME280;47068;55.780;37.520;2023-03-25T00:24:51;98693.75;;;7.61;72.13
61205;BME280;47068;55.780;37.520;2023-03-25T00:27:17;98670.31;;;7.41;71.75
61205;BME280;47068;55.780;37.520;2023-03-25T00:29:46;98689.81;;;7.57;72.64
61205;BME280;47068;55.780;37.520;2023-03-25T00:32:13;98668.03;;;7.38;72.10
61205;BME280;47068;55.780;37.520;2023-03-25T00:34:39;98679.09;;;7.50;72.43
61205;BME280;47068;55.780;37.520;2023-03-25T00:37:13;98685.66;;;7.54;72.49
61205;BME280;47068;55.780;37.520;2023-03-25T00:39:42;98681.56;;;7.51;72.13
61205;BME280;47068;55.780;37.520;2023-03-25T00:42:08;98668.34;;;7.51;71.92
61205;BME280;47068;55.780;37.520;2023-03-25T00:44:35;98669.00;;;7.54;71.98
61205;BME280;47068;55.780;37.520;2023-03-25T00:47:01;98661.06;;;7.54;71.76
61205;BME280;47068;55.780;37.520;2023-03-25T00:49:26;98654.59;;;7.56;71.67
61205;BME280;47068;55.780;37.520;2023-03-25T00:51:54;98662.69;;;7.55;71.71
61205;BME280;47068;55.780;37.520;2023-03-25T00:54:21;98642.22;;;7.40;71.54
61205;BME280;47068;55.780;37.520;2023-03-25T00:56:47;98641.91;;;7.35;71.92
61205;BME280;47068;55.780;37.520;2023-03-25T00:59:13;98666.97;;;7.56;71.33
61205;BME280;47068;55.780;37.520;2023-03-25T01:01:38;98646.63;;;7.56;71.70
61205;BME280;47068;55.780;37.520;2023-03-25T01:04:05;98645.81;;;7.56;71.23
61205;BME280;47068;55.780;37.520;2023-03-25T01:06:38;98639.19;;;7.60;71.85
61205;BME280;47068;55.780;37.520;2023-03-25T01:09:10;98641.03;;;7.59;71.95
61205;BME280;47068;55.780;37.520;2023-03-25T01:11:38;98638.69;;;7.64;71.42
61205;BME280;47068;55.780;37.520;2023-03-25T01:14:07;98628.91;;;7.65;71.11
61205;BME280;47068;55.780;37.520;2023-03-25T01:16:33;98620.34;;;7.55;71.52
61205;BME280;47068;55.780;37.520;2023-03-25T01:18:59;98639.16;;;7.68;70.67
61205;BME280;47068;55.780;37.520;2023-03-25T01:21:25;98614.56;;;7.59;71.40
61205;BME280;47068;55.780;37.520;2023-03-25T01:23:51;98637.66;;;7.73;71.08
61205;BME280;47068;55.780;37.520;2023-03-25T01:26:17;98644.59;;;7.74;70.62
61205;BME280;47068;55.780;37.520;2023-03-25T01:28:43;98652.56;;;7.74;70.82
61205;BME280;47068;55.780;37.520;2023-03-25T01:31:11;98604.00;;;7.51;71.19
61205;BME280;47068;55.780;37.520;2023-03-25T01:33:37;98629.88;;;7.72;71.26
61205;BME280;47068;55.780;37.520;2023-03-25T01:36:03;98593.72;;;7.56;71.33
61205;BME280;47068;55.780;37.520;2023-03-25T01:38:34;98572.09;;;7.44;71.37
61205;BME280;47068;55.780;37.520;2023-03-25T01:40:59;98602.91;;;7.68;71.08
61205;BME280;47068;55.780;37.520;2023-03-25T01:43:25;98610.34;;;7.73;70.98
61205;BME280;47068;55.780;37.520;2023-03-25T01:45:50;98580.44;;;7.64;70.94
61205;BME280;47068;55.780;37.520;2023-03-25T01:50:55;98584.88;;;7.72;71.46
61205;BME280;47068;55.780;37.520;2023-03-25T01:53:21;98557.16;;;7.60;71.06
61205;BME280;47068;55.780;37.520;2023-03-25T01:55:46;98570.94;;;7.78;71.18
61205;BME280;47068;55.780;37.520;2023-03-25T01:58:14;98578.84;;;7.86;71.27
61205;BME280;47068;55.780;37.520;2023-03-25T02:00:44;98565.63;;;7.86;71.07
61205;BME280;47068;55.780;37.520;2023-03-25T02:03:12;98556.88;;;7.77;71.29
61205;BME280;47068;55.780;37.520;2023-03-25T02:06:06;98564.25;;;7.90;71.36
61205;BME280;47068;55.780;37.520;2023-03-25T02:08:36;98563.56;;;7.96;71.35
61205;BME280;47068;55.780;37.520;2023-03-25T02:11:04;98517.38;;;7.68;71.30
61205;BME280;47068;55.780;37.520;2023-03-25T02:13:31;98561.22;;;8.01;70.72
61205;BME280;47068;55.780;37.520;2023-03-25T02:16:18;98557.22;;;8.05;70.76
61205;BME280;47068;55.780;37.520;2023-03-25T02:19:12;98562.63;;;8.12;71.07
61205;BME280;47068;55.780;37.520;2023-03-25T02:22:20;98564.94;;;8.15;70.35
61205;BME280;47068;55.780;37.520;2023-03-25T02:39:34;98520.97;;;8.28;70.84
61205;BME280;47068;55.780;37.520;2023-03-25T02:42:46;98489.22;;;8.20;71.01
61205;BME280;47068;55.780;37.520;2023-03-25T02:47:56;98507.25;;;8.48;70.74
61205;BME280;47068;55.780;37.520;2023-03-25T02:50:37;98511.38;;;8.65;70.65
61205;BME280;47068;55.780;37.520;2023-03-25T02:53:06;98501.34;;;8.75;70.13
61205;BME280;47068;55.780;37.520;2023-03-25T02:55:36;98295.66;;;7.55;69.66
61205;BME280;47068;55.780;37.520;2023-03-25T02:58:05;98505.00;;;8.89;69.17
61205;BME280;47068;55.780;37.520;2023-03-25T03:00:34;98494.50;;;8.95;69.34
61205;BME280;47068;55.780;37.520;2023-03-25T03:03:03;98480.78;;;8.92;68.59
61205;BME280;47068;55.780;37.520;2023-03-25T03:05:47;98491.09;;;9.01;68.67
61205;BME280;47068;55.780;37.520;2023-03-25T03:24:49;98459.00;;;9.26;67.35
61205;BME280;47068;55.780;37.520;2023-03-25T03:27:31;98435.38;;;9.16;67.49
61205;BME280;47068;55.780;37.520;2023-03-25T03:30:12;98436.66;;;9.20;67.14
61205;BME280;47068;55.780;37.520;2023-03-25T03:33:23;98440.25;;;9.13;67.57
61205;BME280;47068;55.780;37.520;2023-03-25T03:35:32;98428.69;;;9.20;67.69
61205;BME280;47068;55.780;37.520;2023-03-25T03:38:07;98429.81;;;9.26;67.64
61205;BME280;47068;55.780;37.520;2023-03-25T03:40:36;98425.09;;;9.28;67.32
61205;BME280;47068;55.780;37.520;2023-03-25T03:43:06;98423.88;;;9.45;67.62
61205;BME280;47068;55.780;37.520;2023-03-25T03:45:36;98423.97;;;9.52;66.66
61205;BME280;47068;55.780;37.520;2023-03-25T03:48:16;98412.50;;;9.51;66.85
61205;BME280;47068;55.780;37.520;2023-03-25T03:50:52;98406.50;;;9.64;66.63
61205;BME280;47068;55.780;37.520;2023-03-25T03:53:59;98405.31;;;9.66;66.55
61205;BME280;47068;55.780;37.520;2023-03-25T03:56:32;98397.59;;;9.71;66.47
61205;BME280;47068;55.780;37.520;2023-03-25T03:59:41;98350.31;;;9.39;66.06
61205;BME280;47068;55.780;37.520;2023-03-25T04:02:34;98392.28;;;9.71;66.13
61205;BME280;47068;55.780;37.520;2023-03-25T04:04:58;98388.88;;;9.77;65.69
61205;BME280;47068;55.780;37.520;2023-03-25T04:07:38;98359.59;;;9.71;65.80
61205;BME280;47068;55.780;37.520;2023-03-25T04:10:15;98256.09;;;9.07;65.29
61205;BME280;47068;55.780;37.520;2023-03-25T04:12:51;98387.97;;;9.92;65.59
61205;BME280;47068;55.780;37.520;2023-03-25T04:15:18;98374.06;;;9.89;65.55
61205;BME280;47068;55.780;37.520;2023-03-25T04:17:44;98373.03;;;9.91;65.40
61205;BME280;47068;55.780;37.520;2023-03-25T04:20:13;98358.13;;;9.89;65.28
61205;BME280;47068;55.780;37.520;2023-03-25T04:22:39;98358.00;;;9.98;65.22
61205;BME280;47068;55.780;37.520;2023-03-25T04:25:10;98360.66;;;9.98;65.35
61205;BME280;47068;55.780;37.520;2023-03-25T04:27:36;98351.91;;;10.04;65.00
61205;BME280;47068;55.780;37.520;2023-03-25T04:30:04;98352.13;;;10.02;64.94
61205;BME280;47068;55.780;37.520;2023-03-25T04:32:30;98338.50;;;9.91;64.99
61205;BME280;47068;55.780;37.520;2023-03-25T04:34:55;98343.56;;;10.07;64.60
61205;BME280;47068;55.780;37.520;2023-03-25T04:37:23;98345.19;;;10.08;64.36
61205;BME280;47068;55.780;37.520;2023-03-25T04:39:50;98345.38;;;10.06;64.42
61205;BME280;47068;55.780;37.520;2023-03-25T04:42:16;98340.91;;;10.07;64.42
61205;BME280;47068;55.780;37.520;2023-03-25T04:44:42;98314.69;;;10.04;64.37
61205;BME280;47068;55.780;37.520;2023-03-25T04:47:11;98314.38;;;10.13;64.19
61205;BME280;47068;55.780;37.520;2023-03-25T04:49:39;98313.69;;;10.05;64.60
61205;BME280;47068;55.780;37.520;2023-03-25T04:52:09;98317.41;;;10.10;64.66
61205;BME280;47068;55.780;37.520;2023-03-25T04:54:35;98311.53;;;10.15;64.11
61205;BME280;47068;55.780;37.520;2023-03-25T04:57:03;98299.50;;;10.19;64.27
61205;BME280;47068;55.780;37.520;2023-03-25T04:59:28;98308.97;;;10.28;63.89
61205;BME280;47068;55.780;37.520;2023-03-25T05:01:54;98206.59;;;9.70;63.87
61205;BME280;47068;55.780;37.520;2023-03-25T05:04:20;98300.06;;;10.42;64.20
61205;BME280;47068;55.780;37.520;2023-03-25T05:06:47;98289.00;;;10.45;63.29
61205;BME280;47068;55.780;37.520;2023-03-25T05:09:19;98259.09;;;10.30;63.42
61205;BME280;47068;55.780;37.520;2023-03-25T05:11:46;98300.13;;;10.55;63.02
61205;BME280;47068;55.780;37.520;2023-03-25T05:14:14;98315.91;;;10.63;63.40
61205;BME280;47068;55.780;37.520;2023-03-25T05:16:40;98308.75;;;10.64;62.98
61205;BME280;47068;55.780;37.520;2023-03-25T05:19:06;98318.56;;;10.63;63.27
61205;BME280;47068;55.780;37.520;2023-03-25T05:21:32;98317.13;;;10.61;63.27
61205;BME280;47068;55.780;37.520;2023-03-25T05:24:00;98300.13;;;10.55;63.50
61205;BME280;47068;55.780;37.520;2023-03-25T05:26:27;98302.16;;;10.53;63.82
61205;BME280;47068;55.780;37.520;2023-03-25T05:29:10;98312.66;;;10.68;63.59
61205;BME280;47068;55.780;37.520;2023-03-25T05:31:41;98309.19;;;10.74;63.52
61205;BME280;47068;55.780;37.520;2023-03-25T05:34:06;98304.28;;;10.71;63.37
61205;BME280;47068;55.780;37.520;2023-03-25T05:36:33;98291.34;;;10.61;63.64
61205;BME280;47068;55.780;37.520;2023-03-25T05:38:58;98306.69;;;10.66;64.08
61205;BME280;47068;55.780;37.520;2023-03-25T05:41:26;98258.69;;;10.33;63.96
61205;BME280;47068;55.780;37.520;2023-03-25T05:43:59;98304.44;;;10.56;63.96
61205;BME280;47068;55.780;37.520;2023-03-25T05:46:27;98273.06;;;10.45;64.44
61205;BME280;47068;55.780;37.520;2023-03-25T05:48:54;98284.72;;;10.44;64.40
61205;BME280;47068;55.780;37.520;2023-03-25T05:51:22;98303.44;;;10.64;64.23
61205;BME280;47068;55.780;37.520;2023-03-25T05:53:47;98300.56;;;10.65;64.08
61205;BME280;47068;55.780;37.520;2023-03-25T05:56:17;98281.72;;;10.60;64.04
61205;BME280;47068;55.780;37.520;2023-03-25T05:58:46;98295.25;;;10.65;64.37
61205;BME280;47068;55.780;37.520;2023-03-25T06:01:12;98291.56;;;10.66;64.42
61205;BME280;47068;55.780;37.520;2023-03-25T06:03:39;98293.38;;;10.59;65.30
61205;BME280;47068;55.780;37.520;2023-03-25T06:06:06;98287.50;;;10.71;65.29
61205;BME280;47068;55.780;37.520;2023-03-25T06:08:41;98283.28;;;10.96;65.16
61205;BME280;47068;55.780;37.520;2023-03-25T06:11:08;98253.84;;;11.04;64.19
61205;BME280;47068;55.780;37.520;2023-03-25T06:13:34;98284.19;;;11.42;63.44
61205;BME280;47068;55.780;37.520;2023-03-25T06:16:06;98263.88;;;11.28;63.42
61205;BME280;47068;55.780;37.520;2023-03-25T06:18:33;98257.72;;;11.15;63.93
61205;BME280;47068;55.780;37.520;2023-03-25T06:20:59;98272.50;;;11.17;64.12
61205;BME280;47068;55.780;37.520;2023-03-25T06:23:25;98227.78;;;10.93;63.85
61205;BME280;47068;55.780;37.520;2023-03-25T06:25:52;98260.38;;;11.15;64.48
61205;BME280;47068;55.780;37.520;2023-03-25T06:28:18;98265.94;;;11.13;64.64
61205;BME280;47068;55.780;37.520;2023-03-25T06:30:45;98274.66;;;10.94;65.42
61205;BME280;47068;55.780;37.520;2023-03-25T06:33:12;98276.50;;;10.87;65.62
61205;BME280;47068;55.780;37.520;2023-03-25T06:35:42;98261.34;;;10.81;65.60
61205;BME280;47068;55.780;37.520;2023-03-25T06:38:10;98267.31;;;10.89;65.87
61205;BME280;47068;55.780;37.520;2023-03-25T06:40:36;98275.09;;;10.91;65.63
61205;BME280;47068;55.780;37.520;2023-03-25T06:43:06;98265.44;;;10.83;65.94
61205;BME280;47068;55.780;37.520;2023-03-25T06:45:32;98276.50;;;10.87;66.34
61205;BME280;47068;55.780;37.520;2023-03-25T06:47:58;98279.59;;;10.97;66.75
61205;BME280;47068;55.780;37.520;2023-03-25T06:50:24;98277.78;;;10.97;67.09
61205;BME280;47068;55.780;37.520;2023-03-25T06:52:50;98269.59;;;10.99;67.52
61205;BME280;47068;55.780;37.520;2023-03-25T06:55:16;98240.84;;;10.75;68.83
61205;BME280;47068;55.780;37.520;2023-03-25T06:57:41;98266.03;;;10.79;69.13
61205;BME280;47068;55.780;37.520;2023-03-25T07:00:08;98242.47;;;10.62;69.88
61205;BME280;47068;55.780;37.520;2023-03-25T07:02:36;98262.75;;;10.77;70.04
61205;BME280;47068;55.780;37.520;2023-03-25T07:05:03;98259.06;;;10.71;70.79
61205;BME280;47068;55.780;37.520;2023-03-25T07:07:28;98271.53;;;10.71;71.13
61205;BME280;47068;55.780;37.520;2023-03-25T07:09:54;98246.97;;;10.62;70.86
61205;BME280;47068;55.780;37.520;2023-03-25T07:12:23;98263.59;;;10.84;71.19
61205;BME280;47068;55.780;37.520;2023-03-25T07:14:53;98263.19;;;10.87;71.25
61205;BME280;47068;55.780;37.520;2023-03-25T07:17:19;98234.31;;;10.71;71.36
61205;BME280;47068;55.780;37.520;2023-03-25T07:19:45;98266.69;;;10.94;71.44
61205;BME280;47068;55.780;37.520;2023-03-25T07:22:11;98256.84;;;10.81;71.17
61205;BME280;47068;55.780;37.520;2023-03-25T07:24:36;98267.50;;;10.88;71.45
61205;BME280;47068;55.780;37.520;2023-03-25T07:27:01;98233.06;;;10.66;71.87
61205;BME280;47068;55.780;37.520;2023-03-25T07:29:27;98230.56;;;10.58;72.29
61205;BME280;47068;55.780;37.520;2023-03-25T07:31:52;98240.22;;;10.66;71.96
61205;BME280;47068;55.780;37.520;2023-03-25T07:34:18;98249.69;;;10.88;71.85
61205;BME280;47068;55.780;37.520;2023-03-25T07:36:44;98229.41;;;10.81;72.13
61205;BME280;47068;55.780;37.520;2023-03-25T07:39:09;98233.09;;;10.80;72.09
61205;BME280;47068;55.780;37.520;2023-03-25T07:41:35;98254.81;;;10.90;72.06
61205;BME280;47068;55.780;37.520;2023-03-25T07:44:01;98241.28;;;10.78;72.20
61205;BME280;47068;55.780;37.520;2023-03-25T07:46:26;98256.44;;;10.84;72.33
61205;BME280;47068;55.780;37.520;2023-03-25T07:48:52;98263.81;;;10.82;72.46
61205;BME280;47068;55.780;37.520;2023-03-25T07:51:17;98200.03;;;10.41;72.60
61205;BME280;47068;55.780;37.520;2023-03-25T07:53:43;98272.81;;;10.88;72.59
61205;BME280;47068;55.780;37.520;2023-03-25T07:56:10;98263.22;;;10.93;72.76
61205;BME280;47068;55.780;37.520;2023-03-25T07:58:36;98257.72;;;11.08;72.61
61205;BME280;47068;55.780;37.520;2023-03-25T08:01:02;98245.41;;;11.00;72.53
61205;BME280;47068;55.780;37.520;2023-03-25T08:03:28;98261.81;;;11.11;72.13
61205;BME280;47068;55.780;37.520;2023-03-25T08:05:53;98258.72;;;11.07;72.37
61205;BME280;47068;55.780;37.520;2023-03-25T08:08:19;98267.34;;;11.09;72.57
61205;BME280;47068;55.780;37.520;2023-03-25T08:10:45;98233.69;;;10.75;72.38
61205;BME280;47068;55.780;37.520;2023-03-25T08:13:13;98266.69;;;10.94;72.47
61205;BME280;47068;55.780;37.520;2023-03-25T08:15:39;98124.66;;;10.08;72.33
61205;BME280;47068;55.780;37.520;2023-03-25T08:18:06;98277.13;;;10.95;72.45
61205;BME280;47068;55.780;37.520;2023-03-25T08:20:32;98203.94;;;10.45;72.55
61205;BME280;47068;55.780;37.520;2023-03-25T08:22:59;98299.28;;;11.02;72.94
61205;BME280;47068;55.780;37.520;2023-03-25T08:25:25;98293.28;;;10.87;73.71
61205;BME280;47068;55.780;37.520;2023-03-25T08:27:50;98195.31;;;10.30;74.18
61205;BME280;47068;55.780;37.520;2023-03-25T08:30:16;98299.00;;;10.78;75.20
61205;BME280;47068;55.780;37.520;2023-03-25T08:32:41;98262.25;;;10.53;75.06
61205;BME280;47068;55.780;37.520;2023-03-25T08:35:10;98298.59;;;10.87;74.59
61205;BME280;47068;55.780;37.520;2023-03-25T08:37:36;98184.44;;;10.25;74.56
61205;BME280;47068;55.780;37.520;2023-03-25T08:40:06;98288.41;;;10.97;74.22
61205;BME280;47068;55.780;37.520;2023-03-25T08:42:35;98299.69;;;11.06;74.58
61205;BME280;47068;55.780;37.520;2023-03-25T08:45:01;98292.31;;;11.08;73.99
61205;BME280;47068;55.780;37.520;2023-03-25T08:47:27;98253.81;;;10.91;74.16
61205;BME280;47068;55.780;37.520;2023-03-25T08:49:52;98286.19;;;11.14;73.66
61205;BME280;47068;55.780;37.520;2023-03-25T08:52:17;98294.84;;;11.62;73.90
61205;BME280;47068;55.780;37.520;2023-03-25T08:54:43;98297.94;;;11.66;72.24
61205;BME280;47068;55.780;37.520;2023-03-25T08:57:09;98298.75;;;11.60;72.39
61205;BME280;47068;55.780;37.520;2023-03-25T08:59:34;98285.81;;;11.43;72.47
61205;BME280;47068;55.780;37.520;2023-03-25T09:02:00;98300.59;;;11.46;72.73
61205;BME280;47068;55.780;37.520;2023-03-25T09:04:26;98295.84;;;11.41;72.95
61205;BME280;47068;55.780;37.520;2023-03-25T09:06:51;98299.56;;;11.40;72.98
61205;BME280;47068;55.780;37.520;2023-03-25T09:09:17;98300.16;;;11.36;72.93
61205;BME280;47068;55.780;37.520;2023-03-25T09:11:42;98300.78;;;11.31;72.89
61205;BME280;47068;55.780;37.520;2023-03-25T09:14:08;98308.56;;;11.26;73.40
61205;BME280;47068;55.780;37.520;2023-03-25T09:16:34;98301.97;;;11.29;73.28
61205;BME280;47068;55.780;37.520;2023-03-25T09:19:01;98287.66;;;11.36;73.85
61205;BME280;47068;55.780;37.520;2023-03-25T09:21:26;98274.56;;;11.48;73.04
61205;BME280;47068;55.780;37.520;2023-03-25T09:23:52;98279.28;;;11.66;72.99
61205;BME280;47068;55.780;37.520;2023-03-25T09:26:17;98287.66;;;11.69;72.53
61205;BME280;47068;55.780;37.520;2023-03-25T09:28:43;98259.81;;;11.72;72.71
61205;BME280;47068;55.780;37.520;2023-03-25T09:31:09;98287.28;;;11.86;71.64
61205;BME280;47068;55.780;37.520;2023-03-25T09:33:35;98318.44;;;11.98;71.83
61205;BME280;47068;55.780;37.520;2023-03-25T09:36:01;98324.22;;;11.95;71.62
61205;BME280;47068;55.780;37.520;2023-03-25T09:38:27;98315.78;;;11.85;71.52
61205;BME280;47068;55.780;37.520;2023-03-25T09:40:53;98327.47;;;11.97;71.90
61205;BME280;47068;55.780;37.520;2023-03-25T09:46:04;98334.63;;;12.03;70.68
61205;BME280;47068;55.780;37.520;2023-03-25T09:48:36;98338.13;;;11.97;71.57
61205;BME280;47068;55.780;37.520;2023-03-25T09:51:05;98331.78;;;11.98;71.13
61205;BME280;47068;55.780;37.520;2023-03-25T09:53:40;98312.50;;;11.83;71.13
61205;BME280;47068;55.780;37.520;2023-03-25T09:56:21;98108.25;;;10.58;71.66
61205;BME280;47068;55.780;37.520;2023-03-25T09:58:51;98331.38;;;12.01;71.12
61205;BME280;47068;55.780;37.520;2023-03-25T10:01:43;98314.56;;;12.01;70.76
61205;BME280;47068;55.780;37.520;2023-03-25T10:04:27;98318.84;;;12.15;71.00
61205;BME280;47068;55.780;37.520;2023-03-25T10:12:49;98304.44;;;12.36;70.20
61205;BME280;47068;55.780;37.520;2023-03-25T10:15:20;98324.25;;;12.66;69.99
61205;BME280;47068;55.780;37.520;2023-03-25T10:25:44;98325.31;;;12.65;69.42
61205;BME280;47068;55.780;37.520;2023-03-25T10:28:18;98306.41;;;12.60;70.13
61205;BME280;47068;55.780;37.520;2023-03-25T10:30:50;98325.91;;;12.67;69.21
61205;BME280;47068;55.780;37.520;2023-03-25T10:33:44;98315.44;;;12.59;69.43
61205;BME280;47068;55.780;37.520;2023-03-25T10:36:16;98312.16;;;12.70;69.03
61205;BME280;47068;55.780;37.520;2023-03-25T10:38:50;98323.38;;;12.85;68.76
61205;BME280;47068;55.780;37.520;2023-03-25T10:41:26;98312.50;;;12.80;68.40
61205;BME280;47068;55.780;37.520;2023-03-25T10:43:55;98318.22;;;12.90;68.86
61205;BME280;47068;55.780;37.520;2023-03-25T10:49:21;98324.97;;;12.99;68.45
61205;BME280;47068;55.780;37.520;2023-03-25T10:51:50;98288.47;;;12.80;68.83
61205;BME280;47068;55.780;37.520;2023-03-25T10:54:24;98320.84;;;12.97;68.76
61205;BME280;47068;55.780;37.520;2023-03-25T10:56:52;98333.78;;;12.93;69.06
61205;BME280;47068;55.780;37.520;2023-03-25T11:01:55;98326.22;;;12.90;68.89
61205;BME280;47068;55.780;37.520;2023-03-25T11:04:25;98329.69;;;12.97;69.33
61205;BME280;47068;55.780;37.520;2023-03-25T11:06:55;98299.81;;;12.76;68.94
61205;BME280;47068;55.780;37.520;2023-03-25T11:09:29;98273.81;;;12.58;68.75
61205;BME280;47068;55.780;37.520;2023-03-25T11:12:00;98335.66;;;12.86;69.05
61205;BME280;47068;55.780;37.520;2023-03-25T11:14:28;98326.09;;;12.79;69.39
61205;BME280;47068;55.780;37.520;2023-03-25T11:17:00;98302.69;;;12.74;68.85
61205;BME280;47068;55.780;37.520;2023-03-25T11:19:38;98332.38;;;12.91;69.26
61205;BME280;47068;55.780;37.520;2023-03-25T11:22:28;98336.13;;;12.77;69.69
61205;BME280;47068;55.780;37.520;2023-03-25T11:25:11;98325.66;;;12.75;69.27
61205;BME280;47068;55.780;37.520;2023-03-25T11:27:46;98319.47;;;12.81;69.20
61205;BME280;47068;55.780;37.520;2023-03-25T11:30:20;98328.78;;;12.72;69.47
61205;BME280;47068;55.780;37.520;2023-03-25T11:33:04;98325.66;;;12.75;69.66
61205;BME280;47068;55.780;37.520;2023-03-25T11:35:36;98285.75;;;12.49;70.00
61205;BME280;47068;55.780;37.520;2023-03-25T11:38:13;98212.22;;;12.08;69.84
61205;BME280;47068;55.780;37.520;2023-03-25T11:40:51;98310.72;;;12.68;69.70
61205;BME280;47068;55.780;37.520;2023-03-25T11:43:23;98336.53;;;12.80;69.70
61205;BME280;47068;55.780;37.520;2023-03-25T11:45:49;98309.72;;;12.62;70.33
61205;BME280;47068;55.780;37.520;2023-03-25T11:48:22;98337.31;;;12.87;69.78
61205;BME280;47068;55.780;37.520;2023-03-25T11:51:11;98334.44;;;12.89;69.64
61205;BME280;47068;55.780;37.520;2023-03-25T11:53:43;98330.53;;;12.91;70.20
61205;BME280;47068;55.780;37.520;2023-03-25T11:56:14;98329.50;;;12.92;69.54
61205;BME280;47068;55.780;37.520;2023-03-25T11:58:41;98341.22;;;12.91;69.34
61205;BME280;47068;55.780;37.520;2023-03-25T12:01:25;98326.09;;;12.79;69.28
61205;BME280;47068;55.780;37.520;2023-03-25T12:07:06;98331.53;;;12.97;69.05
61205;BME280;47068;55.780;37.520;2023-03-25T12:09:35;98341.81;;;12.93;69.45
61205;BME280;47068;55.780;37.520;2023-03-25T12:26:16;98347.34;;;12.98;69.63
61205;BME280;47068;55.780;37.520;2023-03-25T12:29:15;98349.38;;;13.03;69.36
61205;BME280;47068;55.780;37.520;2023-03-25T12:32:37;98350.00;;;13.05;69.57
61205;BME280;47068;55.780;37.520;2023-03-25T12:51:57;98341.16;;;13.05;68.61
61205;BME280;47068;55.780;37.520;2023-03-25T12:54:32;98340.38;;;12.97;69.15
61205;BME280;47068;55.780;37.520;2023-03-25T13:08:23;98340.78;;;13.70;70.06
61205;BME280;47068;55.780;37.520;2023-03-25T13:11:13;98339.91;;;13.76;67.76
61205;BME280;47068;55.780;37.520;2023-03-25T13:13:41;98330.50;;;13.74;66.53
61205;BME280;47068;55.780;37.520;2023-03-25T13:16:12;98326.56;;;13.76;66.75
61205;BME280;47068;55.780;37.520;2023-03-25T13:19:02;98323.31;;;13.74;66.60
61205;BME280;47068;55.780;37.520;2023-03-25T13:21:46;98320.47;;;13.63;66.76
61205;BME280;47068;55.780;37.520;2023-03-25T13:24:32;98309.25;;;13.54;66.65
61205;BME280;47068;55.780;37.520;2023-03-25T13:26:59;98293.75;;;13.38;67.12
61205;BME280;47068;55.780;37.520;2023-03-25T13:29:51;98323.44;;;13.55;67.51
61205;BME280;47068;55.780;37.520;2023-03-25T13:32:24;98323.91;;;13.45;67.21
61205;BME280;47068;55.780;37.520;2023-03-25T13:34:55;98329.41;;;13.50;66.94
61205;BME280;47068;55.780;37.520;2023-03-25T13:37:25;98338.03;;;13.52;67.55
61205;BME280;47068;55.780;37.520;2023-03-25T13:45:37;98320.97;;;13.22;67.64
61205;BME280;47068;55.780;37.520;2023-03-25T13:48:33;98170.13;;;12.30;67.61
61205;BME280;47068;55.780;37.520;2023-03-25T13:51:04;98342.72;;;13.25;67.86
61205;BME280;47068;55.780;37.520;2023-03-25T13:53:51;98339.06;;;13.20;67.78
61205;BME280;47068;55.780;37.520;2023-03-25T14:13:04;98339.09;;;13.07;68.82
61205;BME280;47068;55.780;37.520;2023-03-25T14:15:35;98337.88;;;13.02;68.21
61205;BME280;47068;55.780;37.520;2023-03-25T14:18:03;98321.53;;;12.79;68.33
61205;BME280;47068;55.780;37.520;2023-03-25T14:20:34;98320.75;;;12.79;68.48
61205;BME280;47068;55.780;37.520;2023-03-25T14:23:07;98328.34;;;12.75;69.00
61205;BME280;47068;55.780;37.520;2023-03-25T14:25:37;98351.94;;;12.78;69.53
61205;BME280;47068;55.780;37.520;2023-03-25T14:28:05;98346.38;;;12.80;69.16
61205;BME280;47068;55.780;37.520;2023-03-25T14:30:32;98348.81;;;12.88;69.09
61205;BME280;47068;55.780;37.520;2023-03-25T14:32:58;98348.44;;;12.84;68.95
61205;BME280;47068;55.780;37.520;2023-03-25T14:48:48;98355.84;;;12.76;68.68
61205;BME280;47068;55.780;37.520;2023-03-25T14:53:50;98360.59;;;12.67;68.91
61205;BME280;47068;55.780;37.520;2023-03-25T14:56:20;98245.09;;;11.89;69.58
61205;BME280;47068;55.780;37.520;2023-03-25T14:58:51;98372.09;;;12.61;69.75
61205;BME280;47068;55.780;37.520;2023-03-25T15:01:19;98357.13;;;12.60;70.05
61205;BME280;47068;55.780;37.520;2023-03-25T15:03:45;98364.75;;;12.50;69.62
61205;BME280;47068;55.780;37.520;2023-03-25T15:06:28;98368.81;;;12.59;70.48
61205;BME280;47068;55.780;37.520;2023-03-25T15:08:57;98336.78;;;12.59;70.97
61205;BME280;47068;55.780;37.520;2023-03-25T15:11:32;98369.88;;;13.16;69.04
61205;BME280;47068;55.780;37.520;2023-03-25T15:14:01;98371.78;;;13.47;68.48
61205;BME280;47068;55.780;37.520;2023-03-25T15:16:56;98367.09;;;13.98;67.09
61205;BME280;47068;55.780;37.520;2023-03-25T15:19:23;98355.38;;;14.24;65.12
61205;BME280;47068;55.780;37.520;2023-03-25T15:24:31;98350.91;;;13.93;64.55
61205;BME280;47068;55.780;37.520;2023-03-25T15:27:03;98369.31;;;13.76;65.15
61205;BME280;47068;55.780;37.520;2023-03-25T15:29:50;98363.50;;;13.86;65.50
61205;BME280;47068;55.780;37.520;2023-03-25T15:52:52;98388.69;;;13.97;65.25
61205;BME280;47068;55.780;37.520;2023-03-25T15:55:30;98400.94;;;13.86;65.02